Akron, Colorado
Current Conditions -  °F | °C
As of 7:53 PM on Saturday 25 Oct 2014 (Local Time) from KAKO Reporting Station
Clear Clear  
Wind Chill: 58°   Ceiling: Unl
Heat Index: 58°   Visibility: 10mi
Dew Point: 35°   Wind: 8mph
Humidity: 42%   Direction: 90°E
Pressure: 30.02"   Gusts: NA
Location:  40.16°N, 103.21°W
Report Text: KAKO 260153Z AUTO 09007KT 10SM CLR 14/02 A3002 RMK AO2 SLP143 T01440017
Loading
Personal Weather Stations






























Interactive Weather Map New forecast layout! Learn more

10-Day Weather Forecast

Advertisements
Track Severe Weather on mobile